LPPR/OPO METAR and TAF weather

Enter ICAO airport designator
Station Type Date Time Source
LPPR METAR 2021/06/24 06:30 UTC NOAA

LPPR 240630Z 10009KT 080V140 CAVOK 19/10 Q1019


Station Type Date Time Source
LPPR Decoded METAR 2021/06/24 06:30 UTC NOAA

Porto / Pedras Rubras, Portugal (LPPR) 41-14N 008-41W 77M
Jun 24, 2021 - 02:30 AM EDT / 2021.06.24 0630 UTC
Wind: from the E (100 degrees) at 10 MPH (9 KT) (direction variable):0
Visibility: greater than 7 mile(s):0
Temperature: 66 F (19 C)
Dew Point: 50 F (10 C)
Relative Humidity: 55%
Pressure (altimeter): 30.09 in. Hg (1019 hPa)
ob: LPPR 240630Z 10009KT 080V140 CAVOK 19/10 Q1019
cycle: 6

Station Type Date Time Source
LPPR TAF 2021/06/24 06:18 UTC NOAA

TAF LPPR 240500Z 2406/2506 08008KT CAVOK
BECMG 2412/2414 34012KT
BECMG 2422/2424 08005KT

Example: see airport list